createdAt,value
2022-12-17T20:32:13.097Z,66.82
2022-12-17T20:45:22.782Z,46.28
2022-12-17T20:47:49.130Z,49.24
2022-12-17T20:50:15.672Z,48.06
2022-12-17T20:52:42.120Z,46.92
2022-12-17T20:57:47.533Z,46.46
2022-12-17T21:00:13.949Z,45.25
2022-12-17T21:02:40.887Z,45.76
2022-12-17T21:05:07.575Z,46.48
2022-12-17T21:10:06.530Z,49.15
2022-12-17T21:12:33.455Z,51.39
2022-12-17T21:15:00.421Z,54.44
2022-12-17T21:20:12.498Z,54.13
2022-12-17T21:25:31.672Z,52.96
2022-12-17T21:27:59.017Z,54.86
2022-12-17T21:30:39.492Z,56.10
2022-12-17T21:33:05.947Z,53.39
2022-12-17T21:35:32.334Z,54.29
2022-12-17T21:37:58.708Z,52.97
2022-12-17T21:40:25.025Z,53.87
2022-12-17T21:42:51.959Z,54.11
2022-12-17T21:45:18.283Z,53.51
2022-12-17T21:47:45.036Z,54.72
2022-12-17T21:50:11.262Z,55.91
2022-12-17T21:52:37.568Z,55.36
2022-12-17T21:55:04.001Z,56.67
2022-12-17T21:57:30.346Z,57.49
2022-12-17T21:59:56.764Z,55.73
2022-12-17T22:02:23.132Z,52.30
2022-12-17T22:04:49.674Z,50.27
2022-12-17T22:07:16.042Z,48.52
2022-12-17T22:09:54.865Z,52.40
2022-12-17T22:12:30.463Z,49.80
2022-12-17T22:14:56.736Z,50.16
2022-12-17T22:17:23.489Z,51.42
2022-12-17T22:19:49.711Z,55.72
2022-12-17T22:22:16.031Z,57.62
2022-12-17T22:24:42.248Z,59.71
2022-12-17T22:27:09.442Z,59.97
2022-12-17T22:29:35.934Z,60.00
2022-12-17T22:32:02.217Z,59.78
2022-12-17T22:35:19.941Z,56.08
2022-12-17T22:40:13.970Z,53.16
2022-12-17T22:44:30.854Z,54.15
2022-12-17T22:44:45.956Z,56.75
2022-12-17T22:45:34.470Z,55.04
2022-12-17T22:48:00.718Z,51.79
2022-12-17T22:50:28.172Z,52.50
2022-12-17T22:52:58.179Z,52.03
2022-12-17T22:55:24.815Z,54.11
2022-12-17T22:57:51.632Z,54.15
2022-12-17T23:00:17.942Z,54.48
2022-12-17T23:02:44.327Z,54.28
2022-12-17T23:05:10.747Z,53.68
2022-12-17T23:07:37.216Z,53.51
2022-12-17T23:10:03.515Z,56.21
2022-12-17T23:12:29.809Z,56.25
2022-12-17T23:14:58.577Z,58.05
2022-12-17T23:17:24.874Z,57.60
2022-12-17T23:19:51.342Z,56.22
2022-12-17T23:22:22.154Z,55.03
2022-12-17T23:24:48.769Z,58.71
2022-12-17T23:29:41.372Z,56.96
2022-12-17T23:32:07.716Z,56.85
2022-12-17T23:34:34.036Z,56.29
2022-12-17T23:37:00.343Z,53.82
2022-12-17T23:39:26.679Z,53.70
2022-12-17T23:41:53.053Z,55.21
2022-12-17T23:44:19.352Z,54.26
2022-12-17T23:46:45.684Z,55.26
2022-12-17T23:49:11.997Z,55.02
2022-12-17T23:51:38.319Z,55.59
2022-12-17T23:54:04.615Z,53.04
2022-12-17T23:56:30.891Z,50.15
2022-12-17T23:58:57.219Z,49.22
